createdAt,value
2023-04-27T00:01:03.555Z,96369.78
2023-04-27T00:03:30.128Z,96364.53
2023-04-27T00:05:56.703Z,96368.03
2023-04-27T00:08:23.278Z,96358.19
2023-04-27T00:10:49.677Z,96358.66
2023-04-27T00:13:16.033Z,96355.41
2023-04-27T00:15:42.391Z,96360.03
2023-04-27T00:18:08.762Z,96354.72
2023-04-27T00:20:35.170Z,96356.19
2023-04-27T00:23:01.517Z,96360.78
2023-04-27T00:25:27.911Z,96361.28
2023-04-27T00:27:54.307Z,96366.47
2023-04-27T00:30:20.727Z,96361.06
2023-04-27T00:32:47.132Z,96356.22
2023-04-27T00:35:13.556Z,96359.31
2023-04-27T00:37:39.910Z,96353.03
2023-04-27T00:40:06.252Z,96355.59
2023-04-27T00:42:32.596Z,96356.06
2023-04-27T00:44:58.983Z,96359.75
2023-04-27T00:47:25.375Z,96362.84
2023-04-27T00:49:51.785Z,96360.38
2023-04-27T00:52:18.176Z,96353.69
2023-04-27T00:54:44.542Z,96354.16
2023-04-27T00:57:10.925Z,96349.88
2023-04-27T00:59:37.355Z,96356.22
2023-04-27T01:02:03.733Z,96353.03
2023-04-27T01:04:30.214Z,96351.44
2023-04-27T01:06:56.795Z,96366.63
2023-04-27T01:09:23.501Z,96359.25
2023-04-27T01:11:49.925Z,96356.59
2023-04-27T01:14:16.345Z,96361.47
2023-04-27T01:16:42.721Z,96358.22
2023-04-27T01:19:09.099Z,96353.22
2023-04-27T01:21:35.457Z,96353.84
2023-04-27T01:24:01.802Z,96353.03
2023-04-27T01:26:28.184Z,96349.88
2023-04-27T01:28:54.575Z,96368.72
2023-04-27T01:31:21.013Z,96366.09
2023-04-27T01:33:47.426Z,96377.72
2023-04-27T01:36:13.771Z,96370.06
2023-04-27T01:38:40.109Z,96375.00
2023-04-27T01:41:06.505Z,96372.34
2023-04-27T01:43:32.881Z,96365.28
2023-04-27T01:45:59.312Z,96375.81
2023-04-27T01:48:25.679Z,96374.38
2023-04-27T01:50:52.063Z,96367.28
2023-04-27T01:53:18.450Z,96373.94
2023-04-27T01:55:44.800Z,96367.50
2023-04-27T01:58:11.154Z,96362.59
2023-04-27T02:00:37.496Z,96363.63
2023-04-27T02:03:04.220Z,96362.34
2023-04-27T02:05:30.689Z,96369.19
2023-04-27T02:07:57.063Z,96371.53
2023-04-27T02:10:23.442Z,96368.22
2023-04-27T02:12:49.850Z,96369.50
2023-04-27T02:15:16.201Z,96370.25
2023-04-27T02:17:42.624Z,96372.22
2023-04-27T02:20:09.043Z,96374.91
2023-04-27T02:22:35.398Z,96363.16
2023-04-27T02:25:01.793Z,96364.41
2023-04-27T02:27:28.184Z,96359.47
2023-04-27T02:29:55.039Z,96360.41
2023-04-27T02:32:21.858Z,96362.88
2023-04-27T02:34:48.254Z,96360.66
2023-04-27T02:37:14.595Z,96364.72
2023-04-27T02:39:40.928Z,96361.31
2023-04-27T02:42:07.308Z,96365.66
2023-04-27T02:44:33.665Z,96372.84
2023-04-27T02:47:00.188Z,96367.81
2023-04-27T02:49:26.646Z,96369.75
2023-04-27T02:51:53.024Z,96367.69
2023-04-27T02:54:19.377Z,96373.00
2023-04-27T02:56:45.785Z,96376.56
2023-04-27T02:59:12.432Z,96375.16
2023-04-27T03:01:39.108Z,96379.38
2023-04-27T03:04:05.800Z,96378.56
2023-04-27T03:06:32.334Z,96381.31
2023-04-27T03:08:58.725Z,96382.78
2023-04-27T03:11:25.122Z,96382.44
2023-04-27T03:13:51.505Z,96378.78
2023-04-27T03:16:17.967Z,96391.47
2023-04-27T03:18:44.388Z,96388.38
2023-04-27T03:21:10.768Z,96383.25
2023-04-27T03:23:37.128Z,96385.41
2023-04-27T03:26:03.530Z,96385.84
2023-04-27T03:28:29.943Z,96394.19
2023-04-27T03:30:56.325Z,96394.09
2023-04-27T03:33:22.732Z,96392.47
2023-04-27T03:35:49.137Z,96384.28
2023-04-27T03:38:15.516Z,96389.06
2023-04-27T03:40:41.912Z,96389.50
2023-04-27T03:43:08.301Z,96386.56
2023-04-27T03:45:34.683Z,96387.59
2023-04-27T03:48:01.133Z,96393.06
2023-04-27T03:50:28.415Z,96390.44
2023-04-27T03:52:56.386Z,96394.44
2023-04-27T03:55:22.795Z,96399.78
2023-04-27T03:57:49.157Z,96393.41
2023-04-27T04:00:15.507Z,96383.50
2023-04-27T04:02:41.983Z,96391.00
2023-04-27T04:05:08.460Z,96391.22
2023-04-27T04:07:34.849Z,96392.72
2023-04-27T04:10:01.204Z,96391.00
2023-04-27T04:12:27.576Z,96387.03
2023-04-27T04:14:53.926Z,96387.78
2023-04-27T04:17:20.304Z,96391.75
2023-04-27T04:19:46.661Z,96387.00
2023-04-27T04:22:13.053Z,96390.28
2023-04-27T04:24:39.454Z,96389.47
2023-04-27T04:27:05.802Z,96390.38
2023-04-27T04:29:32.152Z,96389.47
2023-04-27T04:31:58.491Z,96382.22
2023-04-27T04:34:24.873Z,96386.56
2023-04-27T04:36:51.273Z,96385.88
2023-04-27T04:39:17.656Z,96391.34
2023-04-27T04:41:44.032Z,96387.25
2023-04-27T04:44:10.390Z,96389.31
2023-04-27T04:46:36.813Z,96386.69
2023-04-27T04:49:03.198Z,96381.53
2023-04-27T04:51:29.608Z,96391.09
2023-04-27T04:53:55.992Z,96391.78
2023-04-27T04:56:22.477Z,96385.63
2023-04-27T04:58:48.859Z,96386.41
2023-04-27T05:01:15.282Z,96398.59
2023-04-27T05:03:41.852Z,96390.38
2023-04-27T05:06:08.260Z,96390.81
2023-04-27T05:08:34.594Z,96388.50
2023-04-27T05:11:00.989Z,96388.34
2023-04-27T05:13:27.396Z,96404.19
2023-04-27T05:15:53.819Z,96393.00
2023-04-27T05:18:20.216Z,96396.84
2023-04-27T05:20:46.634Z,96399.56
2023-04-27T05:23:13.045Z,96400.69
2023-04-27T05:25:39.388Z,96411.84
2023-04-27T05:28:05.746Z,96417.56
2023-04-27T05:30:32.132Z,96413.47
2023-04-27T05:32:58.502Z,96414.94
2023-04-27T05:35:24.912Z,96413.56
2023-04-27T05:37:51.253Z,96407.75
2023-04-27T05:40:17.692Z,96409.31
2023-04-27T05:42:44.051Z,96412.78
2023-04-27T05:45:10.444Z,96415.34
2023-04-27T05:47:36.851Z,96416.22
2023-04-27T05:50:03.237Z,96421.97
2023-04-27T05:52:29.632Z,96417.66
2023-04-27T05:54:55.982Z,96430.09
2023-04-27T05:57:22.374Z,96431.19
2023-04-27T05:59:48.729Z,96426.13
2023-04-27T06:02:15.134Z,96424.69
2023-04-27T06:04:41.576Z,96424.75
2023-04-27T06:07:08.000Z,96443.72
2023-04-27T06:09:34.381Z,96442.59
2023-04-27T06:12:00.731Z,96439.03
2023-04-27T06:14:27.122Z,96435.50
2023-04-27T06:16:53.471Z,96433.41
2023-04-27T06:19:19.814Z,96437.09
2023-04-27T06:21:46.208Z,96441.41
2023-04-27T06:24:12.557Z,96440.44
2023-04-27T06:26:38.948Z,96449.97
2023-04-27T06:29:05.297Z,96445.81
2023-04-27T06:31:31.672Z,96438.00
2023-04-27T06:33:58.074Z,96449.25
2023-04-27T06:36:24.421Z,96451.06
2023-04-27T06:38:50.781Z,96448.22
2023-04-27T06:41:17.153Z,96453.66
2023-04-27T06:43:43.499Z,96454.63
2023-04-27T06:46:09.947Z,96450.78
2023-04-27T06:48:36.373Z,96452.03
2023-04-27T06:51:02.764Z,96457.63
2023-04-27T06:53:29.121Z,96451.06
2023-04-27T06:55:55.582Z,96454.28
2023-04-27T06:58:21.980Z,96461.13
2023-04-27T07:00:48.336Z,96455.38
2023-04-27T07:03:14.820Z,96460.81
2023-04-27T07:05:41.332Z,96452.53
2023-04-27T07:08:08.837Z,96448.84
2023-04-27T07:10:35.571Z,96468.44
2023-04-27T07:13:01.973Z,96466.97
2023-04-27T07:15:28.339Z,96463.53
2023-04-27T07:17:54.779Z,96466.34
2023-04-27T07:20:21.142Z,96458.63
2023-04-27T07:22:47.494Z,96460.09
2023-04-27T07:25:13.874Z,96444.22
2023-04-27T07:27:40.267Z,96445.59
2023-04-27T07:30:06.658Z,96444.44
2023-04-27T07:32:33.025Z,96441.56
2023-04-27T07:34:59.409Z,96441.47
2023-04-27T07:37:25.756Z,96433.00
2023-04-27T07:39:52.099Z,96435.56
2023-04-27T07:42:18.432Z,96439.81
2023-04-27T07:44:44.845Z,96437.19
2023-04-27T07:47:11.201Z,96435.47
2023-04-27T07:49:37.728Z,96435.97
2023-04-27T07:52:04.118Z,96436.06
2023-04-27T07:54:30.455Z,96434.56
2023-04-27T07:56:56.835Z,96440.97
2023-04-27T07:59:23.237Z,96434.88
2023-04-27T08:01:49.591Z,96435.06
2023-04-27T08:04:16.418Z,96436.19
2023-04-27T08:06:43.168Z,96427.38
2023-04-27T08:09:09.851Z,96434.72
2023-04-27T08:11:36.248Z,96433.72
2023-04-27T08:14:02.653Z,96426.75
2023-04-27T08:16:29.128Z,96422.63
2023-04-27T08:18:55.496Z,96416.91
2023-04-27T08:21:21.838Z,96409.28
2023-04-27T08:23:48.220Z,96412.88
2023-04-27T08:26:14.563Z,96423.25
2023-04-27T08:28:40.943Z,96423.25
2023-04-27T08:31:07.374Z,96416.44
2023-04-27T08:33:33.799Z,96413.41
2023-04-27T08:36:00.208Z,96413.97
2023-04-27T08:38:26.589Z,96410.66
2023-04-27T08:40:52.981Z,96409.72
2023-04-27T08:43:19.329Z,96411.91
2023-04-27T08:45:45.726Z,96417.22
2023-04-27T08:48:12.092Z,96414.06
2023-04-27T08:50:38.440Z,96409.28
2023-04-27T08:53:04.827Z,96418.25
2023-04-27T08:55:31.181Z,96410.34
2023-04-27T08:57:57.552Z,96412.97
2023-04-27T09:00:23.952Z,96417.22
2023-04-27T09:02:50.424Z,96400.91
2023-04-27T09:05:16.913Z,96406.44
2023-04-27T09:07:43.317Z,96405.38
2023-04-27T09:10:09.702Z,96409.84
2023-04-27T09:12:36.099Z,96416.66
2023-04-27T09:15:02.445Z,96423.50
2023-04-27T09:17:28.952Z,96418.25
2023-04-27T09:19:55.331Z,96414.03
2023-04-27T09:22:21.707Z,96411.41
2023-04-27T09:24:48.105Z,96407.25
2023-04-27T09:27:14.495Z,96405.66
2023-04-27T09:29:40.919Z,96401.19
2023-04-27T09:32:07.288Z,96403.31
2023-04-27T09:34:33.640Z,96395.66
2023-04-27T09:36:59.987Z,96398.84
2023-04-27T09:39:26.323Z,96396.78
2023-04-27T09:41:52.715Z,96403.13
2023-04-27T09:44:19.110Z,96397.59
2023-04-27T09:46:45.471Z,96407.88
2023-04-27T09:49:12.019Z,96400.75
2023-04-27T09:51:38.541Z,96390.41
2023-04-27T09:54:04.911Z,96396.78
2023-04-27T09:56:31.301Z,96390.44
2023-04-27T09:58:59.749Z,96387.81
2023-04-27T10:01:26.213Z,96385.69
2023-04-27T10:03:52.845Z,96388.00
2023-04-27T10:06:20.445Z,96381.41
2023-04-27T10:08:46.850Z,96374.53
2023-04-27T10:11:13.237Z,96373.50
2023-04-27T10:13:39.617Z,96371.91
2023-04-27T10:16:06.001Z,96373.50
2023-04-27T10:18:32.410Z,96375.09
2023-04-27T10:20:58.762Z,96373.50
2023-04-27T10:23:25.186Z,96369.50
2023-04-27T10:25:51.537Z,96371.34
2023-04-27T10:28:17.925Z,96373.97
2023-04-27T10:30:44.316Z,96370.28
2023-04-27T10:33:10.774Z,96364.19
2023-04-27T10:35:37.230Z,96374.50
2023-04-27T10:38:03.580Z,96371.38
2023-04-27T10:40:29.961Z,96365.00
2023-04-27T10:42:56.323Z,96365.56
2023-04-27T10:45:22.722Z,96363.44
2023-04-27T10:47:49.120Z,96368.75
2023-04-27T10:50:15.501Z,96363.16
2023-04-27T10:52:41.842Z,96357.63
2023-04-27T10:55:08.234Z,96356.06
2023-04-27T10:57:34.638Z,96359.97
2023-04-27T11:00:01.026Z,96357.06
2023-04-27T11:02:27.481Z,96354.97
2023-04-27T11:04:53.980Z,96357.06
2023-04-27T11:07:20.412Z,96358.13
2023-04-27T11:09:46.765Z,96358.13
2023-04-27T11:12:13.170Z,96352.84
2023-04-27T11:14:39.498Z,96354.69
2023-04-27T11:17:05.881Z,96351.78
2023-04-27T11:19:32.291Z,96356.75
2023-04-27T11:21:58.658Z,96345.88
2023-04-27T11:24:25.003Z,96338.41
2023-04-27T11:26:51.346Z,96331.41
2023-04-27T11:29:17.830Z,96332.09
2023-04-27T11:31:44.333Z,96342.19
2023-04-27T11:34:10.732Z,96338.94
2023-04-27T11:36:37.123Z,96338.75
2023-04-27T11:39:03.510Z,96333.91
2023-04-27T11:41:29.900Z,96335.84
2023-04-27T11:43:56.285Z,96342.75
2023-04-27T11:46:22.732Z,96333.25
2023-04-27T11:48:49.182Z,96335.28
2023-04-27T11:51:15.539Z,96338.66
2023-04-27T11:53:41.922Z,96333.50
2023-04-27T11:56:08.283Z,96333.34
2023-04-27T11:58:34.661Z,96332.00
2023-04-27T12:01:01.014Z,96331.75
2023-04-27T12:03:27.485Z,96325.34
2023-04-27T12:05:54.044Z,96331.19
2023-04-27T12:08:20.518Z,96328.44
2023-04-27T12:10:46.862Z,96328.16
2023-04-27T12:13:13.240Z,96318.44
2023-04-27T12:15:39.630Z,96319.25
2023-04-27T12:18:06.049Z,96315.63
2023-04-27T12:20:32.476Z,96328.97
2023-04-27T12:22:58.842Z,96324.09
2023-04-27T12:25:25.214Z,96327.22
2023-04-27T12:27:51.625Z,96320.13
2023-04-27T12:30:17.970Z,96322.41
2023-04-27T12:32:44.382Z,96330.88
2023-04-27T12:35:10.744Z,96320.84
2023-04-27T12:37:37.092Z,96320.28
2023-04-27T12:40:03.479Z,96319.41
2023-04-27T12:42:29.843Z,96320.56
2023-04-27T12:44:56.226Z,96313.88
2023-04-27T12:47:45.804Z,96317.91
2023-04-27T12:50:08.893Z,96323.56
2023-04-27T12:52:35.287Z,96314.41
2023-04-27T12:55:01.680Z,96321.16
2023-04-27T12:57:28.018Z,96313.69
2023-04-27T12:59:54.367Z,96311.53
2023-04-27T13:02:20.821Z,96316.81
2023-04-27T13:04:47.330Z,96308.19
2023-04-27T13:07:13.779Z,96311.75
2023-04-27T13:09:40.110Z,96310.47
2023-04-27T13:12:06.531Z,96310.47
2023-04-27T13:14:32.887Z,96318.81
2023-04-27T13:16:59.270Z,96305.50
2023-04-27T13:19:25.660Z,96308.50
2023-04-27T13:21:52.013Z,96308.81
2023-04-27T13:24:18.411Z,96298.19
2023-04-27T13:26:44.830Z,96312.09
2023-04-27T13:29:11.273Z,96301.38
2023-04-27T13:31:37.662Z,96301.09
2023-04-27T13:34:04.054Z,96296.88
2023-04-27T13:36:30.436Z,96303.06
2023-04-27T13:38:56.793Z,96301.47
2023-04-27T13:41:23.158Z,96298.81
2023-04-27T13:43:49.517Z,96295.25
2023-04-27T13:46:15.928Z,96291.91
2023-04-27T13:48:42.390Z,96287.38
2023-04-27T13:51:08.743Z,96292.81
2023-04-27T13:53:35.100Z,96278.63
2023-04-27T13:56:01.502Z,96287.69
2023-04-27T13:58:27.884Z,96280.09
2023-04-27T14:00:54.291Z,96286.00
2023-04-27T14:03:20.792Z,96279.38
2023-04-27T14:05:47.275Z,96283.44
2023-04-27T14:08:13.676Z,96283.63
2023-04-27T14:10:40.019Z,96281.84
2023-04-27T14:13:06.397Z,96271.22
2023-04-27T14:15:32.790Z,96275.16
2023-04-27T14:17:59.181Z,96271.81
2023-04-27T14:20:25.555Z,96274.84
2023-04-27T14:22:51.894Z,96279.22
2023-04-27T14:25:18.292Z,96272.91
2023-04-27T14:27:44.688Z,96270.81
2023-04-27T14:30:11.028Z,96264.88
2023-04-27T14:32:37.486Z,96264.88
2023-04-27T14:35:03.929Z,96260.47
2023-04-27T14:37:30.300Z,96260.63
2023-04-27T14:39:56.674Z,96265.25
2023-04-27T14:42:23.015Z,96265.38
2023-04-27T14:44:49.844Z,96255.47
2023-04-27T14:47:16.306Z,96267.28
2023-04-27T14:49:42.729Z,96253.28
2023-04-27T14:52:09.079Z,96255.09
2023-04-27T14:54:35.500Z,96259.19
2023-04-27T14:57:01.847Z,96253.41
2023-04-27T14:59:28.233Z,96255.03
2023-04-27T15:01:54.664Z,96252.91
2023-04-27T15:04:21.213Z,96255.47
2023-04-27T15:06:47.667Z,96261.22
2023-04-27T15:09:14.344Z,96256.94
2023-04-27T15:11:40.857Z,96262.59
2023-04-27T15:14:07.239Z,96255.78
2023-04-27T15:16:33.707Z,96256.94
2023-04-27T15:19:00.194Z,96256.19
2023-04-27T15:21:26.545Z,96261.34
2023-04-27T15:23:52.952Z,96255.03
2023-04-27T15:26:19.305Z,96253.47
2023-04-27T15:28:45.633Z,96261.16
2023-04-27T15:31:12.041Z,96259.25
2023-04-27T15:33:38.437Z,96260.44
2023-04-27T15:36:04.797Z,96253.97
2023-04-27T15:38:31.142Z,96257.84
2023-04-27T15:40:57.512Z,96246.66
2023-04-27T15:43:24.016Z,96252.06
2023-04-27T15:45:50.428Z,96246.09
2023-04-27T15:48:16.760Z,96240.84
2023-04-27T15:50:43.102Z,96254.06
2023-04-27T15:53:09.489Z,96238.56
2023-04-27T15:55:35.833Z,96241.34
2023-04-27T15:58:02.153Z,96238.69
2023-04-27T16:00:28.534Z,96231.31
2023-04-27T16:02:54.983Z,96238.25
2023-04-27T16:05:21.469Z,96224.91
2023-04-27T16:07:47.873Z,96232.22
2023-04-27T16:10:14.304Z,96228.06
2023-04-27T16:12:40.704Z,96228.47
2023-04-27T16:15:09.284Z,96220.00
2023-04-27T16:17:37.269Z,96221.56
2023-04-27T16:20:03.661Z,96220.38
2023-04-27T16:22:30.085Z,96221.25
2023-04-27T16:24:56.418Z,96215.28
2023-04-27T16:27:22.786Z,96213.69
2023-04-27T16:29:49.180Z,96210.31
2023-04-27T16:32:15.535Z,96213.34
2023-04-27T16:34:41.909Z,96206.47
2023-04-27T16:37:08.307Z,96206.50
2023-04-27T16:39:34.721Z,96207.88
2023-04-27T16:42:01.075Z,96212.97
2023-04-27T16:44:27.454Z,96208.25
2023-04-27T16:46:53.788Z,96211.41
2023-04-27T16:49:20.127Z,96206.22
2023-04-27T16:51:46.511Z,96207.84
2023-04-27T16:54:12.844Z,96207.38
2023-04-27T16:56:39.167Z,96210.06
2023-04-27T16:59:05.553Z,96212.06
2023-04-27T17:01:31.972Z,96206.34
2023-04-27T17:03:58.507Z,96203.47
2023-04-27T17:06:25.062Z,96205.13
2023-04-27T17:08:51.469Z,96202.38
2023-04-27T17:11:17.835Z,96209.69
2023-04-27T17:13:44.179Z,96206.41
2023-04-27T17:16:10.614Z,96211.66
2023-04-27T17:18:37.019Z,96221.19
2023-04-27T17:21:03.400Z,96211.34
2023-04-27T17:23:29.808Z,96211.13
2023-04-27T17:25:56.173Z,96219.63
2023-04-27T17:28:22.508Z,96217.03
2023-04-27T17:30:48.868Z,96216.63
2023-04-27T17:33:15.280Z,96222.13
2023-04-27T17:35:41.662Z,96221.19
2023-04-27T17:38:08.010Z,96213.50
2023-04-27T17:40:34.384Z,96212.63
2023-04-27T17:43:00.793Z,96213.91
2023-04-27T17:45:27.134Z,96205.06
2023-04-27T17:47:53.576Z,96215.31
2023-04-27T17:50:19.968Z,96212.59
2023-04-27T17:52:46.372Z,96213.50
2023-04-27T17:55:12.770Z,96217.81
2023-04-27T17:57:39.174Z,96214.19
2023-04-27T18:00:05.577Z,96223.22
2023-04-27T18:02:32.140Z,96215.88
2023-04-27T18:04:58.624Z,96220.16
2023-04-27T18:07:25.013Z,96232.97
2023-04-27T18:09:51.399Z,96234.06
2023-04-27T18:12:17.779Z,96229.84
2023-04-27T18:14:44.198Z,96228.78
2023-04-27T18:17:10.548Z,96222.44
2023-04-27T18:19:36.996Z,96220.06
2023-04-27T18:22:03.445Z,96231.97
2023-04-27T18:24:29.798Z,96238.88
2023-04-27T18:26:56.249Z,96238.38
2023-04-27T18:29:22.646Z,96235.75
2023-04-27T18:31:49.072Z,96228.91
2023-04-27T18:34:15.488Z,96236.84
2023-04-27T18:36:41.857Z,96237.88
2023-04-27T18:39:08.203Z,96231.53
2023-04-27T18:41:34.623Z,96235.28
2023-04-27T18:44:01.024Z,96234.78
2023-04-27T18:46:27.479Z,96238.50
2023-04-27T18:48:53.917Z,96239.59
2023-04-27T18:51:20.286Z,96242.84
2023-04-27T18:53:46.675Z,96242.88
2023-04-27T18:56:13.028Z,96244.97
2023-04-27T18:58:39.439Z,96251.56
2023-04-27T19:01:05.895Z,96243.41
2023-04-27T19:03:32.475Z,96244.94
2023-04-27T19:05:59.072Z,96241.75
2023-04-27T19:08:25.591Z,96253.41
2023-04-27T19:10:52.006Z,96258.16
2023-04-27T19:13:18.352Z,96264.47
2023-04-27T19:15:44.730Z,96265.75
2023-04-27T19:18:11.830Z,96260.75
2023-04-27T19:20:38.530Z,96262.91
2023-04-27T19:23:04.938Z,96260.53
2023-04-27T19:25:31.328Z,96271.34
2023-04-27T19:27:57.681Z,96268.69
2023-04-27T19:30:24.047Z,96272.09
2023-04-27T19:32:50.469Z,96271.00
2023-04-27T19:35:16.828Z,96271.03
2023-04-27T19:37:43.209Z,96278.22
2023-04-27T19:40:09.609Z,96279.81
2023-04-27T19:42:35.960Z,96283.31
2023-04-27T19:45:02.365Z,96290.47
2023-04-27T19:47:28.727Z,96295.22
2023-04-27T19:49:55.107Z,96279.38
2023-04-27T19:52:21.499Z,96288.38
2023-04-27T19:54:47.839Z,96290.47
2023-04-27T19:57:14.230Z,96291.53
2023-04-27T19:59:40.621Z,96289.41
2023-04-27T20:02:07.096Z,96294.72
2023-04-27T20:04:33.983Z,96287.84
2023-04-27T20:07:00.443Z,96287.31
2023-04-27T20:09:26.848Z,96292.09
2023-04-27T20:11:53.259Z,96297.88
2023-04-27T20:14:19.641Z,96297.63
2023-04-27T20:16:46.104Z,96300.53
2023-04-27T20:19:12.610Z,96307.91
2023-04-27T20:21:39.000Z,96309.50
2023-04-27T20:24:05.361Z,96311.09
2023-04-27T20:26:31.742Z,96314.28
2023-04-27T20:28:58.127Z,96310.03
2023-04-27T20:31:24.499Z,96305.81
2023-04-27T20:33:50.851Z,96312.69
2023-04-27T20:36:18.364Z,96307.13
2023-04-27T20:38:44.858Z,96303.72
2023-04-27T20:41:11.343Z,96315.84
2023-04-27T20:43:37.837Z,96307.38
2023-04-27T20:46:04.354Z,96307.16
2023-04-27T20:48:30.948Z,96301.06
2023-04-27T20:50:57.457Z,96300.53
2023-04-27T20:53:24.106Z,96298.13
2023-04-27T20:55:50.589Z,96298.13
2023-04-27T20:58:17.150Z,96297.31
2023-04-27T21:00:43.759Z,96293.09
2023-04-27T21:03:10.440Z,96297.84
2023-04-27T21:05:37.082Z,96296.00
2023-04-27T21:08:03.668Z,96289.38
2023-04-27T21:10:30.225Z,96298.88
2023-04-27T21:12:56.785Z,96297.84
2023-04-27T21:15:23.390Z,96291.22
2023-04-27T21:17:49.904Z,96294.03
2023-04-27T21:20:16.451Z,96280.31
2023-04-27T21:22:42.831Z,96285.56
2023-04-27T21:25:09.187Z,96293.47
2023-04-27T21:27:35.578Z,96283.69
2023-04-27T21:30:01.983Z,96287.69
2023-04-27T21:32:28.341Z,96290.84
2023-04-27T21:34:54.679Z,96286.88
2023-04-27T21:37:21.079Z,96284.50
2023-04-27T21:39:47.487Z,96278.66
2023-04-27T21:42:13.873Z,96282.31
2023-04-27T21:44:40.245Z,96279.44
2023-04-27T21:47:06.637Z,96282.38
2023-04-27T21:49:32.985Z,96279.75
2023-04-27T21:51:59.330Z,96275.00
2023-04-27T21:54:25.703Z,96274.78
2023-04-27T21:56:52.065Z,96280.09
2023-04-27T21:59:18.409Z,96268.78
2023-04-27T22:01:44.771Z,96280.38
2023-04-27T22:04:11.325Z,96280.38
2023-04-27T22:06:37.843Z,96278.78
2023-04-27T22:09:06.522Z,96281.09
2023-04-27T22:11:34.198Z,96284.97
2023-04-27T22:14:00.531Z,96283.59
2023-04-27T22:16:26.919Z,96281.22
2023-04-27T22:18:53.322Z,96279.69
2023-04-27T22:21:19.658Z,96282.84
2023-04-27T22:23:46.009Z,96278.09
2023-04-27T22:26:12.349Z,96277.56
2023-04-27T22:28:38.713Z,96276.50
2023-04-27T22:31:05.100Z,96280.47
2023-04-27T22:33:31.460Z,96274.91
2023-04-27T22:35:57.838Z,96276.94
2023-04-27T22:38:24.176Z,96278.44
2023-04-27T22:40:50.499Z,96276.31
2023-04-27T22:43:16.830Z,96282.09
2023-04-27T22:45:43.183Z,96274.66
2023-04-27T22:48:09.625Z,96273.66
2023-04-27T22:50:36.053Z,96273.59
2023-04-27T22:53:02.405Z,96277.78
2023-04-27T22:55:28.790Z,96280.41
2023-04-27T22:57:55.168Z,96282.47
2023-04-27T23:00:21.545Z,96280.28
2023-04-27T23:02:48.051Z,96279.00
2023-04-27T23:05:14.508Z,96277.34
2023-04-27T23:07:40.893Z,96274.16
2023-04-27T23:10:07.248Z,96282.53
2023-04-27T23:12:33.600Z,96287.50
2023-04-27T23:14:59.994Z,96293.00
2023-04-27T23:17:26.354Z,96285.00
2023-04-27T23:19:52.737Z,96282.31
2023-04-27T23:22:19.082Z,96282.03
2023-04-27T23:24:45.423Z,96298.13
2023-04-27T23:27:11.765Z,96287.31
2023-04-27T23:29:38.167Z,96284.47
2023-04-27T23:32:04.682Z,96287.19
2023-04-27T23:34:31.220Z,96276.69
2023-04-27T23:36:57.817Z,96281.97
2023-04-27T23:39:24.202Z,96279.94
2023-04-27T23:41:50.589Z,96284.66
2023-04-27T23:44:17.201Z,96287.25
2023-04-27T23:46:43.806Z,96285.47
2023-04-27T23:49:10.210Z,96292.81
2023-04-27T23:51:36.572Z,96301.53
2023-04-27T23:54:02.960Z,96294.13
2023-04-27T23:56:29.349Z,96281.56
2023-04-27T23:58:55.699Z,96283.72
